sensor_id;sensor_type;location;lat;lon;timestamp;pressure;altitude;pressure_sealevel;temperature;humidity
11041;BME280;5573;49.592;8.662;2024-03-25T00:01:04;99066.59;;;5.57;nan
11041;BME280;5573;49.592;8.662;2024-03-25T00:03:31;99065.78;;;5.57;nan
11041;BME280;5573;49.592;8.662;2024-03-25T00:05:58;99072.66;;;5.51;nan
11041;BME280;5573;49.592;8.662;2024-03-25T00:08:24;99073.03;;;5.48;nan
11041;BME280;5573;49.592;8.662;2024-03-25T00:10:50;99082.44;;;5.57;nan
11041;BME280;5573;49.592;8.662;2024-03-25T00:13:16;99068.97;;;5.46;nan
11041;BME280;5573;49.592;8.662;2024-03-25T00:15:45;99079.97;;;5.49;nan
11041;BME280;5573;49.592;8.662;2024-03-25T00:18:11;99075.50;;;5.50;nan
11041;BME280;5573;49.592;8.662;2024-03-25T00:20:40;99070.81;;;5.45;nan
11041;BME280;5573;49.592;8.662;2024-03-25T00:23:06;99078.13;;;5.43;nan
11041;BME280;5573;49.592;8.662;2024-03-25T00:25:32;99075.47;;;5.43;nan
11041;BME280;5573;49.592;8.662;2024-03-25T00:27:58;99071.22;;;5.49;nan
11041;BME280;5573;49.592;8.662;2024-03-25T00:30:25;99073.03;;;5.48;nan
11041;BME280;5573;49.592;8.662;2024-03-25T00:32:51;99071.66;;;5.52;nan
11041;BME280;5573;49.592;8.662;2024-03-25T00:35:18;99072.44;;;5.46;nan
11041;BME280;5573;49.592;8.662;2024-03-25T00:37:45;99074.66;;;5.43;nan
11041;BME280;5573;49.592;8.662;2024-03-25T00:40:12;99075.09;;;5.46;nan
11041;BME280;5573;49.592;8.662;2024-03-25T00:42:38;99073.38;;;5.32;nan
11041;BME280;5573;49.592;8.662;2024-03-25T00:45:06;99080.91;;;5.35;nan
11041;BME280;5573;49.592;8.662;2024-03-25T00:47:32;99080.66;;;5.30;nan
11041;BME280;5573;49.592;8.662;2024-03-25T00:49:59;99073.72;;;5.22;nan
11041;BME280;5573;49.592;8.662;2024-03-25T00:52:25;99078.81;;;5.24;nan
11041;BME280;5573;49.592;8.662;2024-03-25T00:54:53;99074.38;;;5.24;nan
11041;BME280;5573;49.592;8.662;2024-03-25T00:57:19;99079.00;;;5.22;nan
11041;BME280;5573;49.592;8.662;2024-03-25T00:59:46;99079.44;;;5.26;nan
11041;BME280;5573;49.592;8.662;2024-03-25T01:02:11;99075.78;;;5.27;nan
11041;BME280;5573;49.592;8.662;2024-03-25T01:04:38;99079.47;;;5.32;nan
11041;BME280;5573;49.592;8.662;2024-03-25T01:07:04;99076.03;;;5.32;nan
11041;BME280;5573;49.592;8.662;2024-03-25T01:09:31;99081.50;;;5.30;nan
11041;BME280;5573;49.592;8.662;2024-03-25T01:11:58;99079.03;;;5.29;nan
11041;BME280;5573;49.592;8.662;2024-03-25T01:14:25;99083.03;;;5.18;nan
11041;BME280;5573;49.592;8.662;2024-03-25T01:16:52;99079.44;;;5.26;nan
11041;BME280;5573;49.592;8.662;2024-03-25T01:19:18;99078.84;;;5.30;nan
11041;BME280;5573;49.592;8.662;2024-03-25T01:21:46;99074.53;;;5.23;nan
11041;BME280;5573;49.592;8.662;2024-03-25T01:24:14;99078.97;;;5.16;nan
11041;BME280;5573;49.592;8.662;2024-03-25T01:26:40;99078.13;;;5.09;nan
11041;BME280;5573;49.592;8.662;2024-03-25T01:29:08;99090.31;;;5.10;nan
11041;BME280;5573;49.592;8.662;2024-03-25T01:31:34;99083.16;;;5.04;nan
11041;BME280;5573;49.592;8.662;2024-03-25T01:34:01;99086.19;;;5.01;nan
11041;BME280;5573;49.592;8.662;2024-03-25T01:36:27;99078.31;;;4.79;nan
11041;BME280;5573;49.592;8.662;2024-03-25T01:38:53;99078.50;;;4.78;nan
11041;BME280;5573;49.592;8.662;2024-03-25T01:41:21;99078.31;;;4.79;nan
11041;BME280;5573;49.592;8.662;2024-03-25T01:43:49;99083.22;;;4.82;nan
11041;BME280;5573;49.592;8.662;2024-03-25T01:46:17;99084.47;;;4.86;nan
11041;BME280;5573;49.592;8.662;2024-03-25T01:48:45;99089.31;;;4.83;nan
11041;BME280;5573;49.592;8.662;2024-03-25T01:51:12;99085.13;;;4.95;nan
11041;BME280;5573;49.592;8.662;2024-03-25T01:53:39;99085.31;;;4.94;nan
11041;BME280;5573;49.592;8.662;2024-03-25T01:56:06;99093.38;;;4.85;nan
11041;BME280;5573;49.592;8.662;2024-03-25T01:58:33;99084.69;;;4.92;nan
11041;BME280;5573;49.592;8.662;2024-03-25T02:00:59;99080.66;;;4.96;nan
11041;BME280;5573;49.592;8.662;2024-03-25T02:03:28;99088.63;;;5.02;nan
11041;BME280;5573;49.592;8.662;2024-03-25T02:05:58;99084.13;;;4.96;nan
11041;BME280;5573;49.592;8.662;2024-03-25T02:08:26;99073.13;;;4.93;nan
11041;BME280;5573;49.592;8.662;2024-03-25T02:10:53;99087.41;;;4.98;nan
11041;BME280;5573;49.592;8.662;2024-03-25T02:13:21;99087.19;;;5.00;nan
11041;BME280;5573;49.592;8.662;2024-03-25T02:15:47;99081.81;;;4.86;nan
11041;BME280;5573;49.592;8.662;2024-03-25T02:18:17;99086.84;;;4.81;nan
11041;BME280;5573;49.592;8.662;2024-03-25T02:20:44;99089.97;;;4.92;nan
11041;BME280;5573;49.592;8.662;2024-03-25T02:23:11;99083.59;;;4.79;nan
11041;BME280;5573;49.592;8.662;2024-03-25T02:25:38;99080.97;;;4.79;nan
11041;BME280;5573;49.592;8.662;2024-03-25T02:28:06;99080.19;;;4.85;nan
11041;BME280;5573;49.592;8.662;2024-03-25T02:30:33;99062.00;;;4.69;nan
11041;BME280;5573;49.592;8.662;2024-03-25T02:33:01;99076.69;;;4.78;nan
11041;BME280;5573;49.592;8.662;2024-03-25T02:35:27;99087.66;;;4.82;nan
11041;BME280;5573;49.592;8.662;2024-03-25T02:37:54;99081.97;;;4.78;nan
11041;BME280;5573;49.592;8.662;2024-03-25T02:40:20;99089.00;;;4.71;nan
11041;BME280;5573;49.592;8.662;2024-03-25T02:42:48;99082.88;;;4.92;nan
11041;BME280;5573;49.592;8.662;2024-03-25T02:45:15;99078.41;;;4.93;nan
11041;BME280;5573;49.592;8.662;2024-03-25T02:47:43;99079.03;;;4.95;nan
11041;BME280;5573;49.592;8.662;2024-03-25T02:50:09;99075.47;;;4.81;nan
11041;BME280;5573;49.592;8.662;2024-03-25T02:52:36;99077.81;;;4.69;nan
11041;BME280;5573;49.592;8.662;2024-03-25T02:55:02;99070.50;;;4.65;nan
11041;BME280;5573;49.592;8.662;2024-03-25T02:57:29;99068.22;;;4.62;nan
11041;BME280;5573;49.592;8.662;2024-03-25T02:59:55;99061.84;;;4.50;nan
11041;BME280;5573;49.592;8.662;2024-03-25T03:02:23;99073.13;;;4.44;nan
11041;BME280;5573;49.592;8.662;2024-03-25T03:04:49;99072.69;;;4.40;nan
11041;BME280;5573;49.592;8.662;2024-03-25T03:07:16;99078.31;;;4.30;nan
11041;BME280;5573;49.592;8.662;2024-03-25T03:09:42;99071.78;;;4.26;nan
11041;BME280;5573;49.592;8.662;2024-03-25T03:12:09;99072.28;;;4.15;nan
11041;BME280;5573;49.592;8.662;2024-03-25T03:14:34;99074.59;;;4.25;nan
11041;BME280;5573;49.592;8.662;2024-03-25T03:17:01;99069.09;;;4.20;nan
11041;BME280;5573;49.592;8.662;2024-03-25T03:19:32;99061.91;;;4.14;nan
11041;BME280;5573;49.592;8.662;2024-03-25T03:22:01;99055.19;;;4.11;nan
11041;BME280;5573;49.592;8.662;2024-03-25T03:24:27;99063.06;;;4.05;nan
11041;BME280;5573;49.592;8.662;2024-03-25T03:26:54;99064.16;;;3.96;nan
11041;BME280;5573;49.592;8.662;2024-03-25T03:29:20;99062.66;;;3.86;nan
11041;BME280;5573;49.592;8.662;2024-03-25T03:31:47;99060.13;;;3.78;nan
11041;BME280;5573;49.592;8.662;2024-03-25T03:34:13;99056.34;;;3.66;nan
11041;BME280;5573;49.592;8.662;2024-03-25T03:36:41;99058.53;;;3.63;nan
11041;BME280;5573;49.592;8.662;2024-03-25T03:39:07;99059.34;;;3.63;nan
11041;BME280;5573;49.592;8.662;2024-03-25T03:41:35;99059.34;;;3.63;nan
11041;BME280;5573;49.592;8.662;2024-03-25T03:44:01;99059.00;;;3.52;nan
11041;BME280;5573;49.592;8.662;2024-03-25T03:46:28;99068.91;;;3.50;nan
11041;BME280;5573;49.592;8.662;2024-03-25T03:48:54;99061.38;;;3.32;nan
11041;BME280;5573;49.592;8.662;2024-03-25T03:51:22;99064.75;;;3.11;nan
11041;BME280;5573;49.592;8.662;2024-03-25T03:53:49;99061.59;;;3.16;nan
11041;BME280;5573;49.592;8.662;2024-03-25T03:56:16;99069.09;;;3.19;nan
11041;BME280;5573;49.592;8.662;2024-03-25T03:58:42;99075.25;;;2.97;nan
11041;BME280;5573;49.592;8.662;2024-03-25T04:01:14;99064.28;;;2.93;nan
11041;BME280;5573;49.592;8.662;2024-03-25T04:03:40;99078.13;;;2.87;nan
11041;BME280;5573;49.592;8.662;2024-03-25T04:06:08;99072.34;;;2.91;nan
11041;BME280;5573;49.592;8.662;2024-03-25T04:08:34;99070.19;;;3.10;nan
11041;BME280;5573;49.592;8.662;2024-03-25T04:11:02;99053.56;;;2.94;nan
11041;BME280;5573;49.592;8.662;2024-03-25T04:13:28;99072.19;;;3.08;nan
11041;BME280;5573;49.592;8.662;2024-03-25T04:16:00;99066.66;;;3.17;nan
11041;BME280;5573;49.592;8.662;2024-03-25T04:18:27;99071.38;;;3.22;nan
11041;BME280;5573;49.592;8.662;2024-03-25T04:20:54;99075.00;;;3.21;nan
11041;BME280;5573;49.592;8.662;2024-03-25T04:23:20;99072.00;;;3.24;nan
11041;BME280;5573;49.592;8.662;2024-03-25T04:25:47;99065.56;;;3.12;nan
11041;BME280;5573;49.592;8.662;2024-03-25T04:28:15;99066.56;;;3.11;nan
11041;BME280;5573;49.592;8.662;2024-03-25T04:30:42;99066.03;;;3.01;nan
11041;BME280;5573;49.592;8.662;2024-03-25T04:33:08;99058.03;;;3.09;nan
11041;BME280;5573;49.592;8.662;2024-03-25T04:35:35;99073.63;;;2.96;nan
11041;BME280;5573;49.592;8.662;2024-03-25T04:38:01;99066.44;;;2.75;nan
11041;BME280;5573;49.592;8.662;2024-03-25T04:40:27;99081.94;;;2.70;nan
11041;BME280;5573;49.592;8.662;2024-03-25T04:42:53;99080.34;;;2.61;nan
11041;BME280;5573;49.592;8.662;2024-03-25T04:45:20;99075.59;;;2.64;nan
11041;BME280;5573;49.592;8.662;2024-03-25T04:47:46;99076.34;;;2.87;nan
11041;BME280;5573;49.592;8.662;2024-03-25T04:50:11;99069.56;;;3.08;nan
11041;BME280;5573;49.592;8.662;2024-03-25T04:52:37;99069.56;;;2.93;nan
11041;BME280;5573;49.592;8.662;2024-03-25T04:55:04;99072.88;;;2.87;nan
11041;BME280;5573;49.592;8.662;2024-03-25T04:57:30;99077.97;;;2.88;nan
11041;BME280;5573;49.592;8.662;2024-03-25T04:59:56;99081.78;;;2.71;nan
11041;BME280;5573;49.592;8.662;2024-03-25T05:02:23;99076.28;;;2.58;nan
11041;BME280;5573;49.592;8.662;2024-03-25T05:04:49;99074.66;;;2.72;nan
11041;BME280;5573;49.592;8.662;2024-03-25T05:07:14;99081.41;;;2.74;nan
11041;BME280;5573;49.592;8.662;2024-03-25T05:09:41;99084.31;;;2.94;nan
11041;BME280;5573;49.592;8.662;2024-03-25T05:12:07;99089.03;;;2.99;nan
11041;BME280;5573;49.592;8.662;2024-03-25T05:14:32;99084.97;;;3.11;nan
11041;BME280;5573;49.592;8.662;2024-03-25T05:16:58;99081.63;;;3.17;nan
11041;BME280;5573;49.592;8.662;2024-03-25T05:19:26;99082.50;;;3.24;nan
11041;BME280;5573;49.592;8.662;2024-03-25T05:21:52;99092.13;;;3.02;nan
11041;BME280;5573;49.592;8.662;2024-03-25T05:24:18;99096.56;;;3.02;nan
11041;BME280;5573;49.592;8.662;2024-03-25T05:26:44;99098.41;;;3.16;nan
11041;BME280;5573;49.592;8.662;2024-03-25T05:29:10;99097.31;;;3.10;nan
11041;BME280;5573;49.592;8.662;2024-03-25T05:31:36;99100.59;;;2.98;nan
11041;BME280;5573;49.592;8.662;2024-03-25T05:34:03;99100.03;;;3.17;nan
11041;BME280;5573;49.592;8.662;2024-03-25T05:36:30;99101.50;;;3.05;nan
11041;BME280;5573;49.592;8.662;2024-03-25T05:38:56;99101.50;;;3.05;nan
11041;BME280;5573;49.592;8.662;2024-03-25T05:41:22;99112.50;;;3.23;nan
11041;BME280;5573;49.592;8.662;2024-03-25T05:43:48;99102.66;;;3.31;nan
11041;BME280;5573;49.592;8.662;2024-03-25T05:46:14;99108.84;;;3.24;nan
11041;BME280;5573;49.592;8.662;2024-03-25T05:48:40;99098.97;;;3.26;nan
11041;BME280;5573;49.592;8.662;2024-03-25T05:51:06;99102.22;;;3.28;nan
11041;BME280;5573;49.592;8.662;2024-03-25T05:53:34;99105.59;;;3.22;nan
11041;BME280;5573;49.592;8.662;2024-03-25T05:56:00;99092.44;;;3.22;nan
11041;BME280;5573;49.592;8.662;2024-03-25T05:58:26;99112.94;;;3.26;nan
11041;BME280;5573;49.592;8.662;2024-03-25T06:00:53;99118.91;;;3.20;nan
11041;BME280;5573;49.592;8.662;2024-03-25T06:03:19;99108.66;;;3.25;nan
11041;BME280;5573;49.592;8.662;2024-03-25T06:05:46;99110.31;;;3.41;nan
11041;BME280;5573;49.592;8.662;2024-03-25T06:08:12;99107.69;;;3.41;nan
11041;BME280;5573;49.592;8.662;2024-03-25T06:10:44;99109.66;;;3.39;nan
11041;BME280;5573;49.592;8.662;2024-03-25T06:13:10;99109.84;;;3.52;nan
11041;BME280;5573;49.592;8.662;2024-03-25T06:15:36;99115.13;;;3.52;nan
11041;BME280;5573;49.592;8.662;2024-03-25T06:18:02;99114.00;;;3.61;nan
11041;BME280;5573;49.592;8.662;2024-03-25T06:20:28;99119.19;;;3.55;nan
11041;BME280;5573;49.592;8.662;2024-03-25T06:22:54;99127.00;;;3.63;nan
11041;BME280;5573;49.592;8.662;2024-03-25T06:25:20;99127.91;;;3.70;nan
11041;BME280;5573;49.592;8.662;2024-03-25T06:27:47;99120.50;;;3.80;nan
11041;BME280;5573;49.592;8.662;2024-03-25T06:30:14;99120.25;;;3.89;nan
11041;BME280;5573;49.592;8.662;2024-03-25T06:32:58;99122.88;;;3.89;nan
11041;BME280;5573;49.592;8.662;2024-03-25T06:35:43;99127.03;;;3.99;nan
11041;BME280;5573;49.592;8.662;2024-03-25T06:38:09;99126.44;;;4.18;nan
11041;BME280;5573;49.592;8.662;2024-03-25T06:40:36;99099.75;;;4.06;nan
11041;BME280;5573;49.592;8.662;2024-03-25T06:43:04;99139.38;;;4.34;nan
11041;BME280;5573;49.592;8.662;2024-03-25T06:45:30;99144.94;;;4.39;nan
11041;BME280;5573;49.592;8.662;2024-03-25T06:47:56;99139.44;;;4.40;nan
11041;BME280;5573;49.592;8.662;2024-03-25T06:50:23;99133.72;;;4.37;nan
11041;BME280;5573;49.592;8.662;2024-03-25T06:52:49;99149.06;;;4.48;nan
11041;BME280;5573;49.592;8.662;2024-03-25T06:55:15;99144.03;;;4.53;nan
11041;BME280;5573;49.592;8.662;2024-03-25T06:57:41;99151.81;;;4.40;nan
11041;BME280;5573;49.592;8.662;2024-03-25T07:00:09;99145.16;;;4.44;nan
11041;BME280;5573;49.592;8.662;2024-03-25T07:02:35;99149.19;;;4.61;nan
11041;BME280;5573;49.592;8.662;2024-03-25T07:05:01;99150.44;;;4.65;nan
11041;BME280;5573;49.592;8.662;2024-03-25T07:07:27;99144.78;;;4.68;nan
11041;BME280;5573;49.592;8.662;2024-03-25T07:09:53;99152.94;;;4.73;nan
11041;BME280;5573;49.592;8.662;2024-03-25T07:12:19;99152.19;;;4.79;nan
11041;BME280;5573;49.592;8.662;2024-03-25T07:14:44;99166.78;;;4.75;nan
11041;BME280;5573;49.592;8.662;2024-03-25T07:17:12;99153.03;;;4.80;nan
11041;BME280;5573;49.592;8.662;2024-03-25T07:19:38;99159.34;;;4.85;nan
11041;BME280;5573;49.592;8.662;2024-03-25T07:22:04;99154.38;;;4.97;nan
11041;BME280;5573;49.592;8.662;2024-03-25T07:24:30;99160.91;;;5.01;nan
11041;BME280;5573;49.592;8.662;2024-03-25T07:26:55;99145.41;;;5.19;nan
11041;BME280;5573;49.592;8.662;2024-03-25T07:29:21;99148.44;;;5.16;nan
11041;BME280;5573;49.592;8.662;2024-03-25T07:31:47;99150.72;;;5.26;nan
11041;BME280;5573;49.592;8.662;2024-03-25T07:34:14;99144.84;;;5.24;nan
11041;BME280;5573;49.592;8.662;2024-03-25T07:36:40;99143.50;;;5.41;nan
11041;BME280;5573;49.592;8.662;2024-03-25T07:39:06;99137.28;;;5.55;nan
11041;BME280;5573;49.592;8.662;2024-03-25T07:41:32;99142.66;;;5.68;nan
11041;BME280;5573;49.592;8.662;2024-03-25T07:43:58;99144.75;;;5.79;nan
11041;BME280;5573;49.592;8.662;2024-03-25T07:46:24;99132.81;;;5.90;nan
11041;BME280;5573;49.592;8.662;2024-03-25T07:48:50;99131.00;;;5.97;nan
11041;BME280;5573;49.592;8.662;2024-03-25T07:51:17;99129.78;;;6.00;nan
11041;BME280;5573;49.592;8.662;2024-03-25T07:53:43;99132.66;;;6.05;nan
11041;BME280;5573;49.592;8.662;2024-03-25T07:56:09;99134.72;;;6.03;nan
11041;BME280;5573;49.592;8.662;2024-03-25T07:58:35;99145.13;;;6.17;nan
11041;BME280;5573;49.592;8.662;2024-03-25T08:01:01;99142.06;;;6.14;nan
11041;BME280;5573;49.592;8.662;2024-03-25T08:03:26;99146.56;;;6.20;nan
11041;BME280;5573;49.592;8.662;2024-03-25T08:05:52;99144.13;;;6.25;nan
11041;BME280;5573;49.592;8.662;2024-03-25T08:08:19;99142.34;;;6.45;nan
11041;BME280;5573;49.592;8.662;2024-03-25T08:10:45;99143.16;;;6.46;nan
11041;BME280;5573;49.592;8.662;2024-03-25T08:13:11;99148.69;;;6.57;nan
11041;BME280;5573;49.592;8.662;2024-03-25T08:15:37;99136.47;;;6.56;nan
11041;BME280;5573;49.592;8.662;2024-03-25T08:18:03;99149.13;;;6.80;nan
11041;BME280;5573;49.592;8.662;2024-03-25T08:20:29;99141.38;;;6.72;nan
11041;BME280;5573;49.592;8.662;2024-03-25T08:22:56;99140.97;;;6.82;nan
11041;BME280;5573;49.592;8.662;2024-03-25T08:25:23;99141.16;;;6.94;nan
11041;BME280;5573;49.592;8.662;2024-03-25T08:27:48;99140.97;;;7.02;nan
11041;BME280;5573;49.592;8.662;2024-03-25T08:30:14;99130.16;;;7.23;nan
11041;BME280;5573;49.592;8.662;2024-03-25T08:32:40;99132.41;;;7.32;nan
11041;BME280;5573;49.592;8.662;2024-03-25T08:35:07;99131.34;;;7.33;nan
11041;BME280;5573;49.592;8.662;2024-03-25T08:37:32;99146.84;;;7.30;nan
11041;BME280;5573;49.592;8.662;2024-03-25T08:39:58;99134.81;;;7.34;nan
11041;BME280;5573;49.592;8.662;2024-03-25T08:42:26;99129.88;;;7.64;nan
11041;BME280;5573;49.592;8.662;2024-03-25T08:44:51;99125.28;;;7.91;nan
11041;BME280;5573;49.592;8.662;2024-03-25T08:47:17;99119.13;;;8.03;nan
11041;BME280;5573;49.592;8.662;2024-03-25T08:49:43;99124.03;;;8.00;nan
11041;BME280;5573;49.592;8.662;2024-03-25T08:52:09;99120.34;;;8.01;nan
11041;BME280;5573;49.592;8.662;2024-03-25T08:54:36;99118.66;;;8.13;nan
11041;BME280;5573;49.592;8.662;2024-03-25T08:57:02;99119.59;;;8.32;nan
11041;BME280;5573;49.592;8.662;2024-03-25T08:59:30;99118.84;;;8.18;nan
11041;BME280;5573;49.592;8.662;2024-03-25T09:01:56;99115.72;;;8.27;nan
11041;BME280;5573;49.592;8.662;2024-03-25T09:04:22;99116.63;;;8.15;nan
11041;BME280;5573;49.592;8.662;2024-03-25T09:06:47;99119.56;;;8.38;nan
11041;BME280;5573;49.592;8.662;2024-03-25T09:09:13;99114.72;;;8.60;nan
11041;BME280;5573;49.592;8.662;2024-03-25T09:11:58;99117.56;;;8.27;nan
11041;BME280;5573;49.592;8.662;2024-03-25T09:14:23;99119.19;;;8.66;nan
11041;BME280;5573;49.592;8.662;2024-03-25T09:16:50;99118.81;;;8.87;nan
11041;BME280;5573;49.592;8.662;2024-03-25T09:19:17;99115.53;;;8.92;nan
11041;BME280;5573;49.592;8.662;2024-03-25T09:21:42;99112.41;;;8.70;nan
11041;BME280;5573;49.592;8.662;2024-03-25T09:24:08;99101.06;;;8.56;nan
11041;BME280;5573;49.592;8.662;2024-03-25T09:26:34;99095.88;;;8.68;nan
11041;BME280;5573;49.592;8.662;2024-03-25T09:29:00;99105.78;;;8.86;nan
11041;BME280;5573;49.592;8.662;2024-03-25T09:31:26;99098.34;;;9.12;nan
11041;BME280;5573;49.592;8.662;2024-03-25T09:33:54;99091.47;;;9.05;nan
11041;BME280;5573;49.592;8.662;2024-03-25T09:36:20;99082.75;;;8.98;nan
11041;BME280;5573;49.592;8.662;2024-03-25T09:38:47;99085.53;;;8.85;nan
11041;BME280;5573;49.592;8.662;2024-03-25T09:41:13;99085.31;;;8.86;nan
11041;BME280;5573;49.592;8.662;2024-03-25T09:43:43;99073.69;;;9.30;nan
11041;BME280;5573;49.592;8.662;2024-03-25T09:46:09;99079.72;;;9.37;nan
11041;BME280;5573;49.592;8.662;2024-03-25T09:48:36;99065.91;;;9.29;nan
11041;BME280;5573;49.592;8.662;2024-03-25T09:51:04;99066.09;;;9.09;nan
11041;BME280;5573;49.592;8.662;2024-03-25T09:53:30;99054.28;;;9.05;nan
11041;BME280;5573;49.592;8.662;2024-03-25T09:55:56;99038.88;;;9.32;nan
11041;BME280;5573;49.592;8.662;2024-03-25T09:58:24;99043.25;;;9.44;nan
11041;BME280;5573;49.592;8.662;2024-03-25T10:00:52;99040.34;;;9.46;nan
11041;BME280;5573;49.592;8.662;2024-03-25T10:03:17;99043.56;;;9.36;nan
11041;BME280;5573;49.592;8.662;2024-03-25T10:05:43;99031.72;;;9.32;nan
11041;BME280;5573;49.592;8.662;2024-03-25T10:08:11;99033.19;;;9.46;nan
11041;BME280;5573;49.592;8.662;2024-03-25T10:10:37;99023.63;;;9.45;nan
11041;BME280;5573;49.592;8.662;2024-03-25T10:13:03;99021.97;;;9.62;nan
11041;BME280;5573;49.592;8.662;2024-03-25T10:15:29;99018.81;;;9.84;nan
11041;BME280;5573;49.592;8.662;2024-03-25T10:17:55;99019.84;;;10.12;nan
11041;BME280;5573;49.592;8.662;2024-03-25T10:20:21;99016.09;;;9.72;nan
11041;BME280;5573;49.592;8.662;2024-03-25T10:22:47;99011.63;;;9.54;nan
11041;BME280;5573;49.592;8.662;2024-03-25T10:25:26;99017.88;;;9.78;nan
11041;BME280;5573;49.592;8.662;2024-03-25T10:27:53;99013.59;;;10.07;nan
11041;BME280;5573;49.592;8.662;2024-03-25T10:30:19;99019.69;;;10.26;nan
11041;BME280;5573;49.592;8.662;2024-03-25T10:32:45;99018.31;;;10.23;nan
11041;BME280;5573;49.592;8.662;2024-03-25T10:35:12;99002.84;;;10.13;nan
11041;BME280;5573;49.592;8.662;2024-03-25T10:37:39;99006.44;;;10.49;nan
11041;BME280;5573;49.592;8.662;2024-03-25T10:40:07;99004.84;;;10.83;nan
11041;BME280;5573;49.592;8.662;2024-03-25T10:42:39;98970.63;;;10.33;nan
11041;BME280;5573;49.592;8.662;2024-03-25T10:45:09;99002.03;;;10.66;nan
11041;BME280;5573;49.592;8.662;2024-03-25T10:47:36;98998.19;;;11.20;nan
11041;BME280;5573;49.592;8.662;2024-03-25T10:50:08;98990.22;;;11.60;nan
11041;BME280;5573;49.592;8.662;2024-03-25T10:52:36;98998.06;;;11.66;nan
11041;BME280;5573;49.592;8.662;2024-03-25T10:55:04;98997.72;;;11.35;nan
11041;BME280;5573;49.592;8.662;2024-03-25T10:57:31;99001.47;;;11.50;nan
11041;BME280;5573;49.592;8.662;2024-03-25T10:59:59;98992.22;;;11.41;nan
11041;BME280;5573;49.592;8.662;2024-03-25T11:02:27;98987.53;;;11.72;nan
11041;BME280;5573;49.592;8.662;2024-03-25T11:04:53;98989.94;;;11.73;nan
11041;BME280;5573;49.592;8.662;2024-03-25T11:07:29;98984.47;;;11.40;nan
11041;BME280;5573;49.592;8.662;2024-03-25T11:10:03;98980.47;;;11.54;nan
11041;BME280;5573;49.592;8.662;2024-03-25T11:12:32;98973.44;;;11.76;nan
11041;BME280;5573;49.592;8.662;2024-03-25T11:15:00;98971.38;;;11.78;nan
11041;BME280;5573;49.592;8.662;2024-03-25T11:17:26;98958.19;;;11.72;nan
11041;BME280;5573;49.592;8.662;2024-03-25T11:19:53;98957.13;;;11.73;nan
11041;BME280;5573;49.592;8.662;2024-03-25T11:22:24;98953.94;;;12.04;nan
11041;BME280;5573;49.592;8.662;2024-03-25T11:24:50;98932.69;;;12.09;nan
11041;BME280;5573;49.592;8.662;2024-03-25T11:27:21;98947.47;;;12.67;nan
11041;BME280;5573;49.592;8.662;2024-03-25T11:29:48;98950.66;;;12.30;nan
11041;BME280;5573;49.592;8.662;2024-03-25T11:32:15;98936.81;;;12.33;nan
11041;BME280;5573;49.592;8.662;2024-03-25T11:34:50;98932.19;;;12.45;nan
11041;BME280;5573;49.592;8.662;2024-03-25T11:37:16;98926.78;;;12.07;nan
11041;BME280;5573;49.592;8.662;2024-03-25T11:39:42;98920.00;;;12.16;nan
11041;BME280;5573;49.592;8.662;2024-03-25T11:42:08;98923.59;;;12.43;nan
11041;BME280;5573;49.592;8.662;2024-03-25T11:44:36;98918.34;;;12.65;nan
11041;BME280;5573;49.592;8.662;2024-03-25T11:47:02;98906.69;;;12.21;nan
11041;BME280;5573;49.592;8.662;2024-03-25T11:49:30;98905.09;;;12.37;nan
11041;BME280;5573;49.592;8.662;2024-03-25T11:51:58;98897.97;;;12.26;nan
11041;BME280;5573;49.592;8.662;2024-03-25T11:54:27;98879.31;;;12.09;nan
11041;BME280;5573;49.592;8.662;2024-03-25T11:56:53;98896.19;;;12.31;nan
11041;BME280;5573;49.592;8.662;2024-03-25T11:59:19;98892.53;;;12.37;nan
11041;BME280;5573;49.592;8.662;2024-03-25T12:01:46;98887.50;;;12.57;nan
11041;BME280;5573;49.592;8.662;2024-03-25T12:04:12;98857.97;;;12.47;nan
11041;BME280;5573;49.592;8.662;2024-03-25T12:06:40;98877.78;;;12.51;nan
11041;BME280;5573;49.592;8.662;2024-03-25T12:09:08;98880.56;;;12.78;nan
11041;BME280;5573;49.592;8.662;2024-03-25T12:11:53;98867.81;;;12.63;nan
11041;BME280;5573;49.592;8.662;2024-03-25T12:14:19;98876.75;;;12.36;nan
11041;BME280;5573;49.592;8.662;2024-03-25T12:16:45;98864.94;;;12.48;nan
11041;BME280;5573;49.592;8.662;2024-03-25T12:19:11;98866.38;;;12.56;nan
11041;BME280;5573;49.592;8.662;2024-03-25T12:21:37;98865.25;;;12.95;nan
11041;BME280;5573;49.592;8.662;2024-03-25T12:24:05;98853.59;;;13.01;nan
11041;BME280;5573;49.592;8.662;2024-03-25T12:26:33;98848.78;;;13.25;nan
11041;BME280;5573;49.592;8.662;2024-03-25T12:28:59;98850.72;;;13.30;nan
11041;BME280;5573;49.592;8.662;2024-03-25T12:31:25;98844.50;;;12.81;nan
11041;BME280;5573;49.592;8.662;2024-03-25T12:33:51;98834.22;;;12.51;nan
11041;BME280;5573;49.592;8.662;2024-03-25T12:36:20;98823.09;;;12.37;nan
11041;BME280;5573;49.592;8.662;2024-03-25T12:38:54;98828.84;;;12.89;nan
11041;BME280;5573;49.592;8.662;2024-03-25T12:41:22;98829.31;;;13.08;nan
11041;BME280;5573;49.592;8.662;2024-03-25T12:43:49;98824.22;;;13.06;nan
11041;BME280;5573;49.592;8.662;2024-03-25T12:46:16;98818.34;;;12.83;nan
11041;BME280;5573;49.592;8.662;2024-03-25T12:48:42;98808.88;;;12.97;nan
11041;BME280;5573;49.592;8.662;2024-03-25T12:51:12;98804.16;;;13.04;nan
11041;BME280;5573;49.592;8.662;2024-03-25T12:53:38;98809.25;;;13.27;nan
11041;BME280;5573;49.592;8.662;2024-03-25T12:56:04;98801.22;;;13.27;nan
11041;BME280;5573;49.592;8.662;2024-03-25T12:58:31;98796.03;;;13.47;nan
11041;BME280;5573;49.592;8.662;2024-03-25T13:00:58;98783.34;;;13.06;nan
11041;BME280;5573;49.592;8.662;2024-03-25T13:03:24;98782.59;;;12.89;nan
11041;BME280;5573;49.592;8.662;2024-03-25T13:05:50;98768.78;;;12.97;nan
11041;BME280;5573;49.592;8.662;2024-03-25T13:08:16;98765.59;;;13.00;nan
11041;BME280;5573;49.592;8.662;2024-03-25T13:10:43;98758.28;;;13.12;nan
11041;BME280;5573;49.592;8.662;2024-03-25T13:13:09;98758.16;;;13.02;nan
11041;BME280;5573;49.592;8.662;2024-03-25T13:15:36;98754.72;;;13.06;nan
11041;BME280;5573;49.592;8.662;2024-03-25T13:18:03;98746.69;;;13.06;nan
11041;BME280;5573;49.592;8.662;2024-03-25T13:20:29;98745.50;;;13.19;nan
11041;BME280;5573;49.592;8.662;2024-03-25T13:22:55;98739.31;;;12.92;nan
11041;BME280;5573;49.592;8.662;2024-03-25T13:25:21;98732.47;;;12.74;nan
11041;BME280;5573;49.592;8.662;2024-03-25T13:27:47;98719.13;;;13.01;nan
11041;BME280;5573;49.592;8.662;2024-03-25T13:30:13;98715.84;;;12.94;nan
11041;BME280;5573;49.592;8.662;2024-03-25T13:32:40;98711.50;;;13.15;nan
11041;BME280;5573;49.592;8.662;2024-03-25T13:35:06;98709.47;;;13.27;nan
11041;BME280;5573;49.592;8.662;2024-03-25T13:37:32;98696.69;;;13.07;nan
11041;BME280;5573;49.592;8.662;2024-03-25T13:39:58;98699.03;;;13.25;nan